Time;durP1;ratioP1;P1;durP2;ratioP2;P2;SDS_P1;SDS_P2;PMS_P1;PMS_P2;Temp;Humidity;BMP_temperature;BMP_pressure;BME280_temperature;BME280_humidity;BME280_pressure;Samples;Min_cycle;Max_cycle;Signal;HPM_P1;HPM_P2
2023/04/03 00:01:10;;;;;;;7.63;1.75;;;2.70;99.90;;;;;;5030839;28;20053;-71
2023/04/03 00:03:36;;;;;;;12.82;2.42;;;2.70;99.90;;;;;;5031351;28;20033;-71
2023/04/03 00:06:02;;;;;;;10.55;2.42;;;2.70;99.90;;;;;;5031087;28;20532;-72
2023/04/03 00:08:30;;;;;;;12.18;2.30;;;2.60;99.90;;;;;;5030324;28;20045;-71
2023/04/03 00:10:56;;;;;;;8.80;2.47;;;2.60;99.90;;;;;;5029618;28;20017;-71
2023/04/03 00:13:22;;;;;;;5.55;1.75;;;2.60;99.90;;;;;;5030839;28;20052;-72
2023/04/03 00:15:49;;;;;;;11.48;2.45;;;2.60;99.90;;;;;;5031073;28;20065;-71
2023/04/03 00:18:15;;;;;;;8.90;2.30;;;2.60;99.90;;;;;;5030750;28;20037;-71
2023/04/03 00:20:40;;;;;;;7.63;2.45;;;2.50;99.90;;;;;;5030814;28;20490;-72
2023/04/03 00:23:06;;;;;;;6.40;2.35;;;2.50;99.90;;;;;;5029012;28;20022;-70
2023/04/03 00:25:32;;;;;;;11.18;2.42;;;2.40;99.90;;;;;;5029565;28;20033;-72
2023/04/03 00:27:57;;;;;;;11.88;2.65;;;2.40;99.90;;;;;;5029146;28;20406;-70
2023/04/03 00:30:23;;;;;;;8.10;2.40;;;2.40;99.90;;;;;;5030462;28;20022;-70
2023/04/03 00:32:50;;;;;;;8.80;2.30;;;2.30;99.90;;;;;;5031048;28;20582;-71
2023/04/03 00:35:16;;;;;;;8.52;2.40;;;2.30;99.90;;;;;;5030996;28;20034;-70
2023/04/03 00:37:43;;;;;;;6.90;2.03;;;2.30;99.90;;;;;;5030016;28;20405;-71
2023/04/03 00:40:09;;;;;;;9.15;2.65;;;2.20;99.90;;;;;;5030450;28;20048;-70
2023/04/03 00:42:37;;;;;;;11.32;2.10;;;2.20;99.90;;;;;;5029937;28;20022;-71
2023/04/03 00:45:02;;;;;;;10.38;2.70;;;2.20;99.90;;;;;;5030218;28;20048;-71
2023/04/03 00:47:29;;;;;;;10.13;1.90;;;2.20;99.90;;;;;;5030783;28;20029;-69
2023/04/03 00:49:55;;;;;;;7.78;2.15;;;2.20;99.90;;;;;;5030051;28;20083;-71
2023/04/03 00:52:26;;;;;;;5.95;2.05;;;2.20;99.90;;;;;;5028273;28;20017;-69
2023/04/03 00:54:56;;;;;;;9.75;2.30;;;2.20;99.90;;;;;;5030226;28;20090;-70
2023/04/03 00:57:22;;;;;;;9.05;2.67;;;2.10;99.90;;;;;;5030656;28;20029;-70
2023/04/03 00:59:54;;;;;;;9.55;2.08;;;2.10;99.90;;;;;;5030499;28;20031;-69
2023/04/03 01:02:20;;;;;;;5.78;2.30;;;2.10;99.90;;;;;;5030288;28;20487;-70
2023/04/03 01:04:47;;;;;;;6.53;2.22;;;2.10;99.90;;;;;;5029888;28;20038;-70
2023/04/03 01:07:21;;;;;;;7.07;2.83;;;2.10;99.90;;;;;;5030047;28;20041;-71
2023/04/03 01:09:50;;;;;;;8.55;2.35;;;2.00;99.90;;;;;;5027276;28;20067;-71
2023/04/03 01:12:22;;;;;;;12.00;2.80;;;2.00;99.90;;;;;;5029802;28;20017;-71
2023/04/03 01:15:04;;;;;;;9.45;2.38;;;2.00;99.90;;;;;;5029686;28;20036;-72
2023/04/03 01:17:38;;;;;;;11.18;2.50;;;1.90;99.90;;;;;;5030140;28;20643;-71
2023/04/03 01:20:32;;;;;;;8.60;2.60;;;1.90;99.90;;;;;;5029990;28;20213;-71
2023/04/03 01:23:13;;;;;;;9.10;2.70;;;1.80;99.90;;;;;;5030413;28;20029;-71
2023/04/03 01:25:43;;;;;;;9.45;2.70;;;1.80;99.90;;;;;;5029868;28;20030;-70
2023/04/03 01:28:16;;;;;;;7.78;2.55;;;1.80;99.90;;;;;;5029820;28;20028;-71
2023/04/03 01:31:01;;;;;;;9.35;2.70;;;1.80;99.90;;;;;;5030764;28;20918;-72
2023/04/03 01:33:27;;;;;;;8.55;2.47;;;1.80;99.90;;;;;;5035234;28;20071;-71
2023/04/03 01:35:52;;;;;;;11.45;2.83;;;1.70;99.90;;;;;;5033555;28;20041;-71
2023/04/03 01:38:18;;;;;;;9.93;2.80;;;1.70;99.90;;;;;;5034705;28;20032;-72
2023/04/03 01:40:44;;;;;;;6.97;2.72;;;1.60;99.90;;;;;;5034610;28;20096;-71
2023/04/03 01:43:09;;;;;;;15.02;2.95;;;1.60;99.90;;;;;;5034444;28;20033;-70
2023/04/03 01:45:35;;;;;;;10.57;3.08;;;1.70;99.90;;;;;;5033894;28;20506;-71
2023/04/03 01:48:01;;;;;;;11.23;2.67;;;1.60;99.90;;;;;;5034550;28;20052;-70
2023/04/03 01:50:26;;;;;;;9.77;3.00;;;1.60;99.90;;;;;;5034925;28;20021;-71
2023/04/03 01:52:52;;;;;;;9.32;2.85;;;1.60;99.90;;;;;;5034739;28;20028;-71
2023/04/03 01:55:17;;;;;;;9.38;2.88;;;1.60;99.90;;;;;;5034131;28;20029;-72
2023/04/03 01:57:43;;;;;;;10.57;2.85;;;1.50;99.90;;;;;;5034599;28;20081;-71
2023/04/03 02:00:09;;;;;;;8.25;3.05;;;1.50;99.90;;;;;;5034605;28;20033;-72
2023/04/03 02:02:35;;;;;;;13.88;3.15;;;1.50;99.90;;;;;;5033777;28;20018;-71
2023/04/03 02:05:00;;;;;;;12.13;3.13;;;1.50;99.90;;;;;;5034094;28;20038;-72
2023/04/03 02:07:26;;;;;;;6.30;2.63;;;1.50;99.90;;;;;;5034257;28;20026;-71
2023/04/03 02:09:51;;;;;;;14.38;3.15;;;1.40;99.90;;;;;;5033217;28;20478;-71
2023/04/03 02:12:17;;;;;;;9.63;2.85;;;1.40;99.90;;;;;;5033850;28;20056;-71
2023/04/03 02:14:43;;;;;;;10.73;3.72;;;1.40;99.90;;;;;;5033931;28;20033;-71
2023/04/03 02:17:08;;;;;;;12.85;3.47;;;1.40;99.90;;;;;;5034274;28;20025;-72
2023/04/03 02:19:37;;;;;;;12.88;3.08;;;1.40;99.90;;;;;;5032547;28;20028;-71
2023/04/03 02:22:04;;;;;;;11.13;3.08;;;1.40;99.90;;;;;;5033988;28;20026;-69
2023/04/03 02:24:30;;;;;;;12.38;3.10;;;1.40;99.90;;;;;;5033805;28;20080;-71
2023/04/03 02:26:56;;;;;;;13.45;3.42;;;1.30;99.90;;;;;;5033692;28;20037;-70
2023/04/03 02:29:22;;;;;;;11.88;3.53;;;1.30;99.90;;;;;;5033954;28;20021;-72
2023/04/03 02:31:47;;;;;;;17.35;3.70;;;1.30;99.90;;;;;;5034069;28;20025;-72
2023/04/03 02:34:13;;;;;;;11.40;3.15;;;1.30;99.90;;;;;;5033513;28;20076;-72
2023/04/03 02:36:38;;;;;;;7.63;3.10;;;1.30;99.90;;;;;;5033458;28;20088;-71
2023/04/03 02:39:05;;;;;;;13.48;3.90;;;1.30;99.90;;;;;;5033640;28;20061;-71
2023/04/03 02:41:34;;;;;;;9.75;3.22;;;1.20;99.90;;;;;;5032397;28;20029;-71
2023/04/03 02:44:02;;;;;;;12.52;3.63;;;1.20;99.90;;;;;;5030866;28;20056;-70
2023/04/03 02:46:27;;;;;;;10.68;3.20;;;1.20;99.90;;;;;;5033308;28;20038;-72
2023/04/03 02:48:53;;;;;;;13.15;3.80;;;1.20;99.90;;;;;;5032494;28;20086;-70
2023/04/03 02:51:19;;;;;;;16.10;4.13;;;1.20;99.90;;;;;;5032595;28;20056;-71
2023/04/03 02:53:44;;;;;;;13.73;3.90;;;1.20;99.90;;;;;;5032300;28;20128;-70
2023/04/03 02:56:10;;;;;;;15.82;4.00;;;1.20;99.90;;;;;;5031613;28;20025;-69
2023/04/03 02:58:35;;;;;;;12.05;4.28;;;1.20;99.90;;;;;;5030962;28;20048;-70
2023/04/03 03:01:01;;;;;;;11.57;3.88;;;1.10;99.90;;;;;;5030992;28;20021;-70
2023/04/03 03:03:27;;;;;;;10.60;3.75;;;1.10;99.90;;;;;;5031771;28;20056;-74
2023/04/03 03:06:07;;;;;;;22.27;4.22;;;1.10;99.90;;;;;;5032145;28;20045;-72
2023/04/03 03:08:34;;;;;;;13.48;4.18;;;1.10;99.90;;;;;;5031517;28;20056;-72
2023/04/03 03:11:00;;;;;;;12.25;3.33;;;1.10;99.90;;;;;;5029811;28;20022;-72
2023/04/03 03:13:26;;;;;;;17.27;4.32;;;1.10;99.90;;;;;;5031816;28;20123;-70
2023/04/03 03:15:51;;;;;;;10.18;3.55;;;1.00;99.90;;;;;;5031923;28;20068;-69
2023/04/03 03:18:17;;;;;;;9.75;3.70;;;1.00;99.90;;;;;;5031693;28;20389;-71
2023/04/03 03:20:43;;;;;;;11.93;4.15;;;1.00;99.90;;;;;;5032236;28;20026;-71
2023/04/03 03:23:08;;;;;;;9.70;4.05;;;1.00;99.90;;;;;;5030230;28;20021;-70
2023/04/03 03:25:38;;;;;;;18.17;4.32;;;0.90;99.90;;;;;;5031852;28;20034;-71
2023/04/03 03:28:04;;;;;;;19.13;4.25;;;1.00;99.90;;;;;;5030583;28;20040;-72
2023/04/03 03:30:30;;;;;;;13.63;4.00;;;0.90;99.90;;;;;;5031884;28;20061;-70
2023/04/03 03:32:55;;;;;;;10.45;3.85;;;0.90;99.90;;;;;;5031868;28;20057;-72
2023/04/03 03:35:21;;;;;;;12.70;4.38;;;0.90;99.90;;;;;;5031592;28;20021;-70
2023/04/03 03:37:47;;;;;;;17.27;4.55;;;0.90;99.90;;;;;;5031180;28;20510;-71
2023/04/03 03:40:13;;;;;;;14.90;3.83;;;0.80;99.90;;;;;;5030403;28;20061;-71
2023/04/03 03:42:39;;;;;;;14.73;5.10;;;0.90;99.90;;;;;;5029666;28;20041;-71
2023/04/03 03:45:05;;;;;;;19.48;4.88;;;0.80;99.90;;;;;;5030161;28;20486;-70
2023/04/03 03:47:31;;;;;;;17.58;5.35;;;0.80;99.90;;;;;;5031059;28;20035;-72
2023/04/03 03:49:56;;;;;;;15.48;4.30;;;0.80;99.90;;;;;;5031048;28;20057;-71
2023/04/03 03:52:22;;;;;;;11.18;4.63;;;0.80;99.90;;;;;;5032214;28;20402;-71
2023/04/03 03:54:47;;;;;;;14.43;4.80;;;0.80;99.90;;;;;;5030900;28;20014;-74
2023/04/03 03:57:13;;;;;;;17.63;4.97;;;0.80;99.90;;;;;;5030910;28;20034;-72
2023/04/03 03:59:41;;;;;;;14.43;4.80;;;0.80;99.90;;;;;;5030963;28;20029;-71
2023/04/03 04:02:07;;;;;;;20.55;5.50;;;0.70;99.90;;;;;;5030454;28;20025;-71
2023/04/03 04:04:32;;;;;;;14.90;5.30;;;0.70;99.90;;;;;;5030545;28;20018;-72
2023/04/03 04:07:00;;;;;;;15.95;5.03;;;0.70;99.90;;;;;;5030767;28;20017;-71
2023/04/03 04:09:26;;;;;;;13.50;5.07;;;0.70;99.90;;;;;;5030939;28;20049;-71
2023/04/03 04:11:54;;;;;;;15.48;5.43;;;0.70;99.90;;;;;;5029718;28;20033;-71
2023/04/03 04:14:22;;;;;;;16.73;5.55;;;0.70;99.90;;;;;;5030027;28;20363;-73
2023/04/03 04:16:48;;;;;;;13.32;5.05;;;0.70;99.90;;;;;;5030044;28;20025;-71
2023/04/03 04:19:14;;;;;;;12.82;4.93;;;0.70;99.90;;;;;;5030937;28;20616;-72
2023/04/03 04:21:41;;;;;;;26.55;5.65;;;0.60;99.90;;;;;;5030389;28;20052;-71
2023/04/03 04:24:07;;;;;;;16.25;5.95;;;0.60;99.90;;;;;;5027705;28;20030;-72
2023/04/03 04:26:32;;;;;;;18.42;5.90;;;0.60;99.90;;;;;;5028887;28;20037;-71
2023/04/03 04:28:58;;;;;;;14.52;5.82;;;0.60;99.90;;;;;;5030551;28;20053;-72
2023/04/03 04:31:24;;;;;;;19.20;6.00;;;0.60;99.90;;;;;;5030459;28;20030;-73
2023/04/03 04:33:49;;;;;;;20.58;6.20;;;0.60;99.90;;;;;;5031002;28;20069;-71
2023/04/03 04:36:15;;;;;;;15.48;6.30;;;0.50;99.90;;;;;;5027977;28;20030;-70
2023/04/03 04:38:41;;;;;;;16.17;6.53;;;0.50;99.90;;;;;;5031453;28;20029;-72
2023/04/03 04:41:07;;;;;;;16.88;6.25;;;0.50;99.90;;;;;;5031747;28;20018;-71
2023/04/03 04:43:33;;;;;;;13.10;6.20;;;0.50;99.90;;;;;;5031600;28;20033;-70
2023/04/03 04:46:11;;;;;;;15.50;6.47;;;0.50;99.90;;;;;;5031277;28;20033;-71
2023/04/03 04:48:37;;;;;;;21.88;7.70;;;0.40;99.90;;;;;;5031443;28;20038;-71
2023/04/03 04:51:03;;;;;;;15.32;6.13;;;0.40;99.90;;;;;;5031275;28;20082;-71
2023/04/03 04:53:29;;;;;;;18.13;7.13;;;0.40;99.90;;;;;;5031452;28;20032;-70
2023/04/03 04:55:55;;;;;;;21.48;6.80;;;0.40;99.90;;;;;;5031689;28;20048;-70
2023/04/03 04:58:20;;;;;;;13.75;6.68;;;0.40;99.90;;;;;;5030035;28;20030;-69
2023/04/03 05:00:46;;;;;;;23.63;6.63;;;0.40;99.90;;;;;;5030860;28;20029;-71
2023/04/03 05:03:12;;;;;;;15.27;6.32;;;0.40;99.90;;;;;;5030898;28;20022;-70
2023/04/03 05:05:38;;;;;;;18.48;6.53;;;0.40;99.90;;;;;;5031471;28;20048;-71
2023/04/03 05:08:04;;;;;;;17.42;6.05;;;0.40;99.90;;;;;;5030567;28;20041;-69
2023/04/03 05:10:31;;;;;;;14.27;6.57;;;0.40;99.90;;;;;;5034339;28;20018;-69
2023/04/03 05:12:57;;;;;;;15.30;5.88;;;0.40;99.90;;;;;;5034485;28;20017;-71
2023/04/03 05:15:22;;;;;;;15.40;5.97;;;0.40;99.90;;;;;;5035056;28;20105;-69
2023/04/03 05:17:48;;;;;;;14.93;6.25;;;0.40;99.90;;;;;;5035180;28;20030;-69
2023/04/03 05:20:14;;;;;;;21.60;6.38;;;0.50;99.90;;;;;;5034642;28;20029;-71
2023/04/03 05:22:39;;;;;;;23.92;6.60;;;0.50;99.90;;;;;;5030588;28;20109;-69
2023/04/03 05:25:06;;;;;;;17.25;6.78;;;0.50;99.90;;;;;;5032418;28;20129;-69
2023/04/03 05:27:31;;;;;;;19.05;6.65;;;0.50;99.90;;;;;;5032276;28;20076;-70
2023/04/03 05:29:57;;;;;;;14.82;6.22;;;0.50;99.90;;;;;;5033794;28;20037;-70
2023/04/03 05:32:26;;;;;;;20.75;6.90;;;0.60;99.90;;;;;;5031170;28;20022;-71
2023/04/03 05:34:51;;;;;;;20.83;6.85;;;0.60;99.90;;;;;;5033876;28;20045;-70
2023/04/03 05:37:17;;;;;;;16.17;6.95;;;0.60;99.90;;;;;;5034657;28;20030;-69
2023/04/03 05:39:42;;;;;;;16.83;6.15;;;0.60;99.90;;;;;;5031982;28;20084;-70
2023/04/03 05:42:08;;;;;;;17.02;5.75;;;0.60;99.90;;;;;;5032983;28;20026;-70
2023/04/03 05:44:34;;;;;;;11.30;5.53;;;0.60;99.90;;;;;;5031706;28;20030;-70
2023/04/03 05:46:59;;;;;;;18.88;7.03;;;0.70;99.90;;;;;;5034397;28;20127;-71
2023/04/03 05:49:25;;;;;;;16.20;5.30;;;0.70;99.90;;;;;;5032518;28;20028;-69
2023/04/03 05:51:51;;;;;;;17.45;5.82;;;0.70;99.90;;;;;;5033916;28;20032;-70
2023/04/03 05:54:25;;;;;;;16.42;5.82;;;0.70;99.90;;;;;;5033155;28;20022;-69
2023/04/03 05:56:54;;;;;;;9.80;5.45;;;0.70;99.90;;;;;;5033209;28;20030;-70
2023/04/03 05:59:21;;;;;;;19.15;6.20;;;0.70;99.90;;;;;;5033610;28;20029;-70
2023/04/03 06:01:47;;;;;;;17.77;6.50;;;0.80;99.90;;;;;;5034267;28;20845;-70
2023/04/03 06:04:13;;;;;;;15.30;5.97;;;0.80;99.90;;;;;;5034144;28;20033;-69
2023/04/03 06:06:51;;;;;;;15.23;6.07;;;0.90;99.90;;;;;;5034249;28;20542;-69
2023/04/03 06:09:18;;;;;;;15.00;5.78;;;0.90;99.90;;;;;;5033853;28;20060;-70
2023/04/03 06:11:44;;;;;;;14.02;5.68;;;1.00;99.90;;;;;;5032711;28;20395;-69
2023/04/03 06:14:10;;;;;;;17.02;5.47;;;1.00;99.90;;;;;;5033693;28;20029;-71
2023/04/03 06:16:36;;;;;;;15.77;6.20;;;1.10;99.90;;;;;;5033919;28;20031;-69
2023/04/03 06:19:02;;;;;;;15.48;5.38;;;1.10;99.90;;;;;;5033978;28;20028;-71
2023/04/03 06:21:27;;;;;;;18.23;5.68;;;1.20;99.90;;;;;;5034114;28;20022;-71
2023/04/03 06:23:53;;;;;;;16.10;5.47;;;1.30;99.90;;;;;;5033500;28;20026;-69
2023/04/03 06:26:19;;;;;;;10.32;5.30;;;1.30;99.90;;;;;;5032676;28;20056;-70
2023/04/03 06:28:44;;;;;;;20.58;5.60;;;1.40;99.90;;;;;;5032621;28;20041;-70
2023/04/03 06:31:10;;;;;;;18.88;5.47;;;1.40;99.90;;;;;;5032198;28;20030;-71
2023/04/03 06:33:36;;;;;;;14.55;5.38;;;1.40;99.90;;;;;;5033717;28;20067;-70
2023/04/03 06:36:04;;;;;;;17.95;6.10;;;1.50;99.90;;;;;;5033759;28;20076;-68
2023/04/03 06:38:31;;;;;;;15.32;4.80;;;1.50;99.90;;;;;;5033842;28;20040;-70
2023/04/03 06:40:56;;;;;;;14.25;5.18;;;1.60;99.90;;;;;;5033774;28;20018;-70
2023/04/03 06:43:22;;;;;;;12.02;4.95;;;1.70;99.90;;;;;;5033500;28;20025;-69
2023/04/03 06:45:48;;;;;;;15.85;4.88;;;1.80;99.90;;;;;;5031968;28;20037;-70
2023/04/03 06:48:14;;;;;;;11.48;4.38;;;1.80;99.90;;;;;;5033687;28;20026;-70
2023/04/03 06:50:40;;;;;;;13.23;5.00;;;1.90;99.90;;;;;;5030663;28;20029;-70
2023/04/03 06:53:06;;;;;;;12.27;4.93;;;2.00;99.90;;;;;;5033323;28;20048;-70
2023/04/03 06:55:32;;;;;;;10.65;4.57;;;2.10;99.90;;;;;;5033376;28;20025;-71
2023/04/03 06:57:59;;;;;;;13.70;4.65;;;2.20;99.90;;;;;;5033026;28;20089;-69
2023/04/03 07:00:24;;;;;;;17.35;5.38;;;2.30;99.90;;;;;;5032860;28;20049;-69
2023/04/03 07:02:51;;;;;;;10.23;4.40;;;2.40;99.90;;;;;;5033170;28;20037;-70
2023/04/03 07:05:17;;;;;;;12.23;4.97;;;2.50;99.90;;;;;;5032595;28;20034;-69
2023/04/03 07:07:43;;;;;;;12.35;4.65;;;2.60;99.90;;;;;;5032543;28;20687;-69
2023/04/03 07:10:09;;;;;;;13.35;5.10;;;2.70;99.90;;;;;;5032999;28;20022;-69
2023/04/03 07:12:35;;;;;;;13.55;3.97;;;2.90;99.90;;;;;;5033060;28;20017;-70
2023/04/03 07:15:01;;;;;;;14.25;4.10;;;3.00;99.90;;;;;;5032697;28;20046;-69
2023/04/03 07:17:27;;;;;;;9.35;4.28;;;3.10;99.90;;;;;;5032541;28;20110;-70
2023/04/03 07:19:52;;;;;;;15.98;4.05;;;3.30;99.90;;;;;;5030140;28;20060;-69
2023/04/03 07:22:18;;;;;;;9.27;3.20;;;3.40;99.90;;;;;;5018726;28;20029;-69
2023/04/03 07:24:45;;;;;;;11.20;3.20;;;3.50;99.90;;;;;;5026646;28;20133;-70
2023/04/03 07:27:12;;;;;;;11.20;3.42;;;3.60;99.90;;;;;;5032182;28;20053;-69
2023/04/03 07:29:38;;;;;;;15.60;4.15;;;3.80;99.90;;;;;;5028998;28;20021;-70
2023/04/03 07:32:05;;;;;;;9.68;2.80;;;3.90;99.90;;;;;;5030444;28;20421;-68
2023/04/03 07:34:34;;;;;;;11.05;3.17;;;4.10;99.90;;;;;;5032511;28;20040;-70
2023/04/03 07:37:00;;;;;;;9.65;3.25;;;4.20;99.90;;;;;;5031130;28;20034;-70
2023/04/03 07:39:26;;;;;;;11.10;4.30;;;4.30;99.90;;;;;;5031380;28;20021;-71
2023/04/03 07:41:51;;;;;;;9.77;3.10;;;4.40;99.90;;;;;;5031942;28;20113;-69
2023/04/03 07:44:18;;;;;;;9.00;3.30;;;4.50;99.90;;;;;;5031229;28;20075;-70
2023/04/03 07:46:44;;;;;;;14.35;3.30;;;4.60;99.90;;;;;;5027733;28;20041;-70
2023/04/03 07:49:10;;;;;;;8.68;3.30;;;4.80;99.90;;;;;;5026881;28;20029;-69
2023/04/03 07:51:35;;;;;;;10.25;3.60;;;4.90;99.90;;;;;;5026397;28;20041;-69
2023/04/03 07:54:01;;;;;;;6.93;3.00;;;5.00;99.90;;;;;;5028707;28;20033;-69
2023/04/03 07:56:27;;;;;;;11.48;3.38;;;5.10;99.90;;;;;;5024866;28;20033;-69
2023/04/03 07:58:53;;;;;;;14.02;2.88;;;5.20;99.90;;;;;;5031410;28;20090;-70
2023/04/03 08:01:19;;;;;;;11.75;3.03;;;5.30;99.90;;;;;;5028087;28;20067;-69
2023/04/03 08:03:44;;;;;;;12.32;2.85;;;5.40;99.90;;;;;;5031165;28;20082;-69
2023/04/03 08:06:10;;;;;;;5.95;2.35;;;5.60;99.90;;;;;;5031204;28;20100;-69
2023/04/03 08:08:36;;;;;;;10.70;2.83;;;5.70;99.90;;;;;;5032599;28;20053;-69
2023/04/03 08:11:05;;;;;;;9.98;2.65;;;5.90;99.90;;;;;;5032163;28;20033;-69
2023/04/03 08:13:31;;;;;;;9.02;2.25;;;6.10;99.90;;;;;;5031727;28;20041;-70
2023/04/03 08:15:57;;;;;;;11.25;2.50;;;6.30;99.90;;;;;;5028611;28;20467;-70
2023/04/03 08:18:24;;;;;;;8.43;2.30;;;6.60;99.90;;;;;;5032480;28;20018;-69
2023/04/03 08:20:51;;;;;;;12.07;2.33;;;6.90;99.90;;;;;;5030037;28;20367;-69
2023/04/03 08:23:17;;;;;;;5.50;1.70;;;7.00;99.90;;;;;;5031898;28;20021;-71
2023/04/03 08:25:43;;;;;;;10.43;1.92;;;7.30;99.90;;;;;;5031241;28;20430;-71
2023/04/03 08:28:10;;;;;;;6.20;1.35;;;7.50;99.90;;;;;;5032362;28;20018;-70
2023/04/03 08:30:39;;;;;;;6.57;1.75;;;7.50;99.90;;;;;;5031763;28;20462;-69
2023/04/03 08:33:04;;;;;;;4.90;1.60;;;7.70;99.90;;;;;;5031453;28;20026;-70
2023/04/03 08:35:30;;;;;;;6.40;1.48;;;7.80;99.90;;;;;;5031873;28;20030;-70
2023/04/03 08:37:56;;;;;;;5.30;1.40;;;8.00;99.90;;;;;;5032017;28;20061;-70
2023/04/03 08:40:22;;;;;;;7.75;1.48;;;8.10;99.90;;;;;;5030993;28;20497;-70
2023/04/03 08:42:59;;;;;;;6.45;1.75;;;8.30;99.90;;;;;;5036209;28;20030;-72
2023/04/03 08:45:46;;;;;;;3.33;1.50;;;8.40;99.90;;;;;;5035163;28;20068;-71
2023/04/03 08:48:39;;;;;;;4.53;1.50;;;8.60;99.90;;;;;;5035658;28;20033;-68
2023/04/03 08:51:15;;;;;;;5.25;1.50;;;8.60;99.90;;;;;;5034347;28;20266;-68
2023/04/03 08:53:45;;;;;;;3.45;1.40;;;8.70;99.90;;;;;;5036197;28;20021;-70
2023/04/03 08:56:14;;;;;;;2.95;1.42;;;8.70;99.90;;;;;;5035934;28;20028;-68
2023/04/03 08:58:50;;;;;;;4.82;1.38;;;8.80;99.90;;;;;;5036116;28;20085;-69
2023/04/03 09:01:39;;;;;;;6.80;1.60;;;8.90;99.90;;;;;;5025768;28;20498;-67
2023/04/03 09:04:16;;;;;;;6.93;1.40;;;9.00;99.90;;;;;;5032010;28;20029;-67
2023/04/03 09:06:51;;;;;;;3.85;1.48;;;9.10;99.90;;;;;;5034219;28;20057;-68
2023/04/03 09:09:48;;;;;;;6.30;1.70;;;9.20;99.90;;;;;;5035595;28;20072;-69
2023/04/03 09:12:33;;;;;;;3.70;1.23;;;9.40;99.90;;;;;;5034052;28;20038;-69
2023/04/03 09:15:28;;;;;;;2.33;1.02;;;9.60;99.90;;;;;;5035501;28;20029;-69
2023/04/03 09:18:05;;;;;;;5.63;1.50;;;9.70;99.90;;;;;;5034314;28;20042;-69
2023/04/03 09:20:38;;;;;;;6.07;1.13;;;9.70;99.90;;;;;;5035896;28;20030;-70
2023/04/03 09:23:29;;;;;;;3.67;1.45;;;9.70;99.90;;;;;;5035396;28;20029;-69
2023/04/03 09:26:04;;;;;;;4.88;1.70;;;9.60;99.90;;;;;;5035739;28;20114;-69
2023/04/03 09:28:35;;;;;;;3.95;1.33;;;9.80;99.90;;;;;;5034081;28;20049;-70
2023/04/03 09:31:01;;;;;;;3.65;1.10;;;10.00;99.90;;;;;;5029894;28;20438;-69
2023/04/03 09:33:29;;;;;;;4.82;1.33;;;10.10;99.90;;;;;;5034568;28;20022;-70
2023/04/03 09:35:55;;;;;;;16.13;2.17;;;10.20;99.90;;;;;;5034726;28;20419;-70
2023/04/03 09:38:22;;;;;;;12.00;1.50;;;10.30;99.90;;;;;;5035572;28;20029;-70
2023/04/03 09:41:13;;;;;;;3.53;0.98;;;10.40;99.90;;;;;;5029849;28;20098;-69
2023/04/03 09:43:39;;;;;;;3.55;1.15;;;10.60;99.90;;;;;;5033272;28;20505;-70
2023/04/03 09:46:29;;;;;;;5.50;1.15;;;10.80;99.90;;;;;;5035208;28;20041;-70
2023/04/03 09:49:00;;;;;;;3.63;0.98;;;10.70;99.90;;;;;;5032771;28;20038;-69
2023/04/03 09:51:27;;;;;;;2.30;1.10;;;10.80;99.90;;;;;;5032888;28;20028;-70
2023/04/03 09:53:53;;;;;;;2.65;1.10;;;10.90;99.90;;;;;;5031800;28;20162;-70
2023/04/03 09:56:25;;;;;;;3.35;0.93;;;10.90;99.90;;;;;;5033837;28;20022;-70
2023/04/03 09:59:00;;;;;;;3.70;1.15;;;11.00;99.90;;;;;;5034597;28;20093;-70
2023/04/03 10:01:29;;;;;;;5.70;1.30;;;11.10;99.90;;;;;;5031805;28;20034;-69
2023/04/03 10:04:12;;;;;;;4.75;1.15;;;11.10;99.90;;;;;;5034606;28;20022;-69
2023/04/03 10:06:43;;;;;;;9.40;1.60;;;11.20;99.90;;;;;;5030706;28;20033;-70
2023/04/03 10:09:29;;;;;;;3.72;1.25;;;11.30;99.90;;;;;;5034720;28;20047;-69
2023/04/03 10:12:06;;;;;;;2.88;1.08;;;11.40;99.90;;;;;;5032819;28;20453;-71
2023/04/03 10:14:41;;;;;;;3.72;1.48;;;11.50;99.90;;;;;;5030508;28;20112;-69
2023/04/03 10:17:06;;;;;;;;;;;11.60;99.90;;;;;;5033481;28;20093;-70
2023/04/03 10:19:52;;;;;;;2.42;0.85;;;11.80;99.90;;;;;;5029913;28;19959;-70
2023/04/03 10:22:17;;;;;;;1.98;0.93;;;12.00;99.90;;;;;;5033938;28;20034;-69
2023/04/03 10:25:18;;;;;;;3.28;0.93;;;12.20;99.90;;;;;;5033854;28;20033;-70
2023/04/03 10:27:46;;;;;;;4.55;1.25;;;12.30;99.90;;;;;;5026799;28;20065;-69
2023/04/03 10:30:27;;;;;;;2.17;0.80;;;12.40;99.90;;;;;;5033618;28;20089;-70
2023/04/03 10:32:59;;;;;;;3.90;1.05;;;12.40;99.90;;;;;;5034354;28;20026;-68
2023/04/03 10:35:39;;;;;;;4.25;1.00;;;12.50;99.90;;;;;;5032197;28;20030;-71
2023/04/03 10:38:23;;;;;;;2.65;0.80;;;12.60;99.90;;;;;;5030448;28;20034;-71
2023/04/03 10:41:04;;;;;;;3.63;0.80;;;12.60;99.90;;;;;;5031913;28;20026;-69
2023/04/03 10:43:36;;;;;;;2.97;1.10;;;12.80;99.90;;;;;;5031181;28;20040;-71
2023/04/03 10:46:26;;;;;;;6.47;1.17;;;13.00;99.90;;;;;;5032468;28;20687;-70
2023/04/03 10:49:19;;;;;;;3.97;1.25;;;13.00;99.90;;;;;;5032814;28;20041;-70
2023/04/03 10:52:04;;;;;;;2.78;0.80;;;13.10;99.90;;;;;;5032677;28;20026;-69
2023/04/03 10:54:39;;;;;;;3.90;1.13;;;12.90;99.90;;;;;;5028799;28;20112;-71
2023/04/03 10:57:08;;;;;;;2.97;1.08;;;12.90;99.90;;;;;;5032179;28;20530;-69
2023/04/03 10:59:48;;;;;;;3.83;1.08;;;13.00;99.90;;;;;;5032583;28;20029;-69
2023/04/03 11:02:23;;;;;;;4.63;1.58;;;13.20;99.90;;;;;;5032718;28;20029;-71
2023/04/03 11:04:54;;;;;;;1.83;0.80;;;13.40;99.90;;;;;;5031970;28;20033;-70
2023/04/03 11:07:26;;;;;;;2.83;0.80;;;13.40;99.90;;;;;;5032283;28;20360;-70
2023/04/03 11:10:03;;;;;;;2.90;1.30;;;13.30;99.90;;;;;;5032313;28;20081;-70
2023/04/03 11:12:31;;;;;;;4.95;1.00;;;13.30;99.90;;;;;;5031104;28;20554;-68
2023/04/03 11:14:57;;;;;;;4.28;1.30;;;13.30;99.90;;;;;;5033540;28;20036;-70
2023/04/03 11:17:37;;;;;;;4.05;1.30;;;13.50;99.90;;;;;;5033462;28;20028;-69
2023/04/03 11:20:33;;;;;;;6.35;1.23;;;13.70;99.90;;;;;;5031075;28;20029;-69
2023/04/03 11:23:05;;;;;;;4.55;1.10;;;13.80;99.90;;;;;;5033448;28;20593;-69
2023/04/03 11:25:34;;;;;;;3.10;1.08;;;14.00;99.90;;;;;;5032778;28;20061;-68
2023/04/03 11:28:03;;;;;;;6.60;1.70;;;14.10;99.90;;;;;;5033170;28;20108;-71
2023/04/03 11:30:38;;;;;;;2.42;1.08;;;14.10;99.90;;;;;;5033348;28;20189;-70
2023/04/03 11:33:33;;;;;;;4.68;1.42;;;14.20;99.90;;;;;;5032742;28;20699;-69
2023/04/03 11:36:06;;;;;;;4.82;1.00;;;14.30;99.90;;;;;;5031597;28;20025;-70
2023/04/03 11:38:43;;;;;;;13.32;1.52;;;14.30;99.90;;;;;;5030972;28;20030;-71
2023/04/03 11:41:10;;;;;;;2.70;1.15;;;14.10;99.90;;;;;;5032482;28;20022;-69
2023/04/03 11:43:42;;;;;;;2.85;1.00;;;14.20;99.90;;;;;;5031978;28;20073;-70
2023/04/03 11:46:09;;;;;;;5.10;1.25;;;14.30;99.90;;;;;;5032903;28;20120;-69
2023/04/03 11:48:35;;;;;;;3.47;1.10;;;14.60;99.90;;;;;;5032770;28;20059;-69
2023/04/03 11:51:01;;;;;;;3.00;1.10;;;14.60;99.90;;;;;;5032473;28;20085;-68
2023/04/03 11:53:35;;;;;;;2.63;0.90;;;14.80;99.90;;;;;;5032342;28;20042;-71
2023/04/03 11:56:02;;;;;;;;;;;14.90;99.90;;;;;;5031852;28;20025;-70
2023/04/03 11:58:36;;;;;;;8.50;1.30;;;15.00;99.90;;;;;;5031978;28;19906;-70
2023/04/03 12:01:31;;;;;;;14.68;2.05;;;14.90;99.90;;;;;;5032757;28;20031;-70
2023/04/03 12:04:06;;;;;;;5.00;1.45;;;15.00;99.90;;;;;;5032472;28;20052;-71
2023/04/03 12:06:35;;;;;;;;;;;15.20;99.90;;;;;;5032231;28;20056;-70
2023/04/03 12:09:01;;;;;;;5.03;1.67;;;15.40;99.90;;;;;;5031691;28;19925;-71
2023/04/03 12:11:32;;;;;;;13.07;1.67;;;15.50;99.90;;;;;;5032218;28;20041;-71
2023/04/03 12:13:57;;;;;;;4.57;1.42;;;15.30;99.90;;;;;;5032356;28;20029;-72
2023/04/03 12:16:44;;;;;;;2.67;1.02;;;15.20;99.90;;;;;;5032254;28;20072;-70
2023/04/03 12:19:32;;;;;;;2.80;1.08;;;15.30;99.90;;;;;;5031750;28;20026;-71
2023/04/03 12:21:59;;;;;;;15.77;2.08;;;14.80;99.90;;;;;;5031767;28;20112;-72
2023/04/03 12:24:28;;;;;;;2.70;1.20;;;14.90;99.90;;;;;;5032117;28;20140;-72
2023/04/03 12:26:56;;;;;;;4.93;1.40;;;15.30;99.90;;;;;;5032369;28;20069;-69
2023/04/03 12:29:34;;;;;;;7.90;1.20;;;15.70;99.90;;;;;;5031035;28;20026;-71
2023/04/03 12:32:03;;;;;;;7.32;1.35;;;15.90;99.90;;;;;;5031950;28;20021;-72
2023/04/03 12:34:34;;;;;;;6.93;1.42;;;15.90;99.90;;;;;;5032258;28;20042;-71
2023/04/03 12:37:08;;;;;;;3.08;1.60;;;16.00;99.90;;;;;;5031871;28;20021;-72
2023/04/03 12:39:43;;;;;;;38.67;2.65;;;15.90;99.90;;;;;;5032035;28;20021;-71
2023/04/03 12:42:31;;;;;;;4.45;1.20;;;15.70;99.90;;;;;;5031973;28;20022;-71
2023/04/03 12:45:10;;;;;;;6.93;1.27;;;15.80;99.90;;;;;;5031875;28;20014;-72
2023/04/03 12:47:39;;;;;;;3.38;1.52;;;16.10;99.90;;;;;;5032307;28;20020;-71
2023/04/03 12:50:29;;;;;;;4.80;1.50;;;16.50;99.90;;;;;;5031260;28;20084;-71
2023/04/03 12:53:19;;;;;;;3.50;1.50;;;16.70;99.90;;;;;;5032248;28;20070;-71
2023/04/03 12:55:45;;;;;;;4.88;1.38;;;16.80;99.90;;;;;;5030385;28;20049;-73
2023/04/03 12:58:30;;;;;;;5.40;1.50;;;16.60;99.90;;;;;;5031657;28;20026;-70
2023/04/03 13:01:09;;;;;;;330.00;26.67;;;16.00;99.40;;;;;;5024150;28;20061;-70
2023/04/03 13:03:42;;;;;;;152.63;7.72;;;16.00;99.90;;;;;;5023450;28;20056;-73